createdAt,value
2017-09-30T00:00:00.007Z,13.00
2017-09-30T00:02:34.571Z,13.00
2017-09-30T00:05:09.105Z,13.00
2017-09-30T00:07:43.689Z,13.00
2017-09-30T00:10:19.233Z,12.90
2017-09-30T00:12:53.687Z,12.90
2017-09-30T00:15:28.293Z,12.90
2017-09-30T00:18:02.892Z,12.90
2017-09-30T00:20:38.266Z,12.80
2017-09-30T00:23:12.929Z,12.70
2017-09-30T00:25:48.245Z,12.80
2017-09-30T00:28:22.781Z,12.70
2017-09-30T00:30:57.422Z,12.80
2017-09-30T00:33:31.874Z,12.80
2017-09-30T00:36:06.421Z,12.80
2017-09-30T00:38:40.949Z,12.70
2017-09-30T00:41:15.647Z,12.70
2017-09-30T00:43:50.318Z,12.70
2017-09-30T00:46:24.919Z,12.70
2017-09-30T00:48:59.377Z,12.70
2017-09-30T00:51:33.896Z,12.70
2017-09-30T00:54:08.345Z,12.70
2017-09-30T00:56:42.186Z,12.60
2017-09-30T00:59:16.037Z,12.60
2017-09-30T01:01:50.455Z,12.60
2017-09-30T01:04:24.900Z,12.60
2017-09-30T01:06:59.482Z,12.60
2017-09-30T01:09:33.978Z,12.50
2017-09-30T01:12:08.565Z,12.50
2017-09-30T01:14:42.982Z,12.40
2017-09-30T01:17:18.313Z,12.40
2017-09-30T01:19:52.405Z,12.40
2017-09-30T01:22:26.573Z,12.30
2017-09-30T01:25:00.673Z,12.30
2017-09-30T01:27:35.186Z,12.30
2017-09-30T01:30:15.070Z,12.20
2017-09-30T01:32:49.293Z,12.20
2017-09-30T01:35:23.386Z,12.20
2017-09-30T01:37:57.687Z,12.20
2017-09-30T01:40:31.911Z,12.20
2017-09-30T01:43:06.098Z,12.30
2017-09-30T01:45:40.713Z,12.20
2017-09-30T01:48:14.581Z,12.30
2017-09-30T01:50:48.707Z,12.20
2017-09-30T01:53:23.306Z,12.20
2017-09-30T01:55:57.901Z,12.20
2017-09-30T01:58:31.757Z,12.20
2017-09-30T02:01:05.532Z,12.20
2017-09-30T02:03:40.319Z,12.20
2017-09-30T02:06:14.757Z,12.20
2017-09-30T02:08:49.373Z,12.20
2017-09-30T02:11:23.939Z,12.20
2017-09-30T02:13:58.559Z,12.10
2017-09-30T02:16:33.155Z,12.10
2017-09-30T02:19:07.737Z,12.10
2017-09-30T02:21:42.376Z,12.10
2017-09-30T02:24:16.873Z,12.00
2017-09-30T02:26:51.485Z,12.00
2017-09-30T02:29:25.973Z,11.90
2017-09-30T02:32:00.566Z,11.90
2017-09-30T02:34:35.121Z,11.80
2017-09-30T02:37:10.471Z,11.80
2017-09-30T02:39:44.974Z,11.70
2017-09-30T02:42:19.533Z,11.80
2017-09-30T02:44:53.974Z,11.80
2017-09-30T02:47:28.576Z,11.80
2017-09-30T02:50:03.290Z,11.70
2017-09-30T02:52:42.929Z,11.70
2017-09-30T02:55:17.482Z,11.60
2017-09-30T02:57:51.925Z,11.60
2017-09-30T03:00:26.517Z,11.60
2017-09-30T03:03:01.029Z,11.50
2017-09-30T03:05:36.373Z,11.50
2017-09-30T03:08:10.877Z,11.40
2017-09-30T03:10:45.449Z,11.50
2017-09-30T03:13:20.215Z,11.50
2017-09-30T03:15:54.770Z,11.50
2017-09-30T03:18:29.429Z,11.50
2017-09-30T03:21:04.005Z,11.50
2017-09-30T03:23:38.449Z,11.50
2017-09-30T03:26:13.077Z,11.50
2017-09-30T03:28:47.517Z,11.50
2017-09-30T03:31:22.139Z,11.40
2017-09-30T03:33:57.105Z,11.40
2017-09-30T03:36:31.766Z,11.40
2017-09-30T03:39:07.045Z,11.30
2017-09-30T03:41:41.750Z,11.30
2017-09-30T03:44:16.428Z,11.30
2017-09-30T03:46:50.950Z,11.30
2017-09-30T03:49:25.539Z,11.30
2017-09-30T03:52:00.869Z,11.30
2017-09-30T03:54:35.346Z,11.30
2017-09-30T03:57:09.917Z,11.30
2017-09-30T03:59:44.482Z,11.30
2017-09-30T04:02:19.890Z,11.30
2017-09-30T04:04:54.477Z,11.30
2017-09-30T04:07:29.040Z,11.30
2017-09-30T04:10:13.343Z,11.30
2017-09-30T04:12:47.877Z,11.30
2017-09-30T04:15:22.450Z,11.30
2017-09-30T04:17:57.035Z,11.30
2017-09-30T04:20:31.551Z,11.30
2017-09-30T04:23:06.109Z,11.30
2017-09-30T04:25:40.665Z,11.30
2017-09-30T04:28:16.055Z,11.20
2017-09-30T04:30:50.675Z,11.20
2017-09-30T04:33:25.242Z,11.20
2017-09-30T04:35:59.761Z,11.20
2017-09-30T04:38:34.217Z,11.10
2017-09-30T04:41:08.754Z,11.10
2017-09-30T04:43:43.313Z,11.10
2017-09-30T04:46:17.868Z,11.10
2017-09-30T04:48:52.401Z,11.10
2017-09-30T04:51:26.619Z,11.10
2017-09-30T04:54:01.065Z,11.10
2017-09-30T04:56:35.826Z,11.10
2017-09-30T04:59:10.250Z,11.10
2017-09-30T05:01:44.858Z,11.10
2017-09-30T05:04:19.490Z,11.10
2017-09-30T05:06:54.017Z,11.00
2017-09-30T05:09:28.616Z,11.00
2017-09-30T05:12:02.955Z,11.10
2017-09-30T05:14:37.531Z,11.10
2017-09-30T05:17:12.781Z,11.10
2017-09-30T05:19:47.538Z,11.00
2017-09-30T05:22:22.145Z,11.10
2017-09-30T05:24:56.739Z,11.10
2017-09-30T05:27:32.069Z,11.20
2017-09-30T05:30:15.293Z,11.10
2017-09-30T05:32:49.854Z,11.20
2017-09-30T05:35:24.510Z,11.30
2017-09-30T05:37:59.050Z,11.30
2017-09-30T05:40:33.592Z,11.40
2017-09-30T05:43:08.177Z,11.40
2017-09-30T05:45:42.577Z,11.40
2017-09-30T05:48:17.082Z,11.50
2017-09-30T05:50:51.617Z,11.50
2017-09-30T05:53:26.161Z,11.60
2017-09-30T05:56:00.850Z,11.60
2017-09-30T05:58:35.289Z,11.70
2017-09-30T06:01:09.816Z,11.70
2017-09-30T06:03:44.366Z,11.80
2017-09-30T06:06:18.921Z,11.80
2017-09-30T06:08:53.569Z,11.90
2017-09-30T06:11:28.114Z,11.90
2017-09-30T06:14:02.721Z,12.10
2017-09-30T06:16:37.277Z,12.10
2017-09-30T06:19:11.937Z,12.30
2017-09-30T06:21:46.529Z,12.50
2017-09-30T06:24:21.105Z,12.70
2017-09-30T06:26:55.734Z,13.00
2017-09-30T06:29:30.309Z,13.20
2017-09-30T06:32:05.007Z,13.50
2017-09-30T06:34:39.745Z,13.80
2017-09-30T06:37:14.261Z,14.10
2017-09-30T06:39:49.837Z,14.70
2017-09-30T06:42:24.539Z,14.60
2017-09-30T06:44:59.090Z,15.00
2017-09-30T06:47:33.643Z,15.40
2017-09-30T06:50:16.061Z,15.80
2017-09-30T06:52:50.737Z,16.00
2017-09-30T06:55:25.354Z,16.30
2017-09-30T06:57:59.845Z,16.60
2017-09-30T07:00:34.393Z,16.90
2017-09-30T07:03:08.964Z,17.10
2017-09-30T07:05:43.493Z,17.40
2017-09-30T07:08:17.965Z,17.50
2017-09-30T07:10:52.605Z,17.80
2017-09-30T07:13:27.266Z,17.90
2017-09-30T07:16:01.782Z,18.10
2017-09-30T07:18:36.269Z,18.40
2017-09-30T07:21:10.831Z,18.50
2017-09-30T07:23:45.393Z,18.80
2017-09-30T07:26:19.950Z,18.90
2017-09-30T07:28:55.257Z,19.30
2017-09-30T07:31:29.959Z,19.20
2017-09-30T07:34:05.237Z,19.70
2017-09-30T07:36:39.765Z,19.60
2017-09-30T07:39:14.255Z,20.10
2017-09-30T07:41:48.817Z,20.70
2017-09-30T07:44:23.307Z,21.70
2017-09-30T07:46:57.858Z,23.70
2017-09-30T07:49:32.346Z,26.20
2017-09-30T07:52:06.913Z,28.60
2017-09-30T07:54:41.530Z,30.40
2017-09-30T07:57:16.152Z,32.40
2017-09-30T07:59:50.805Z,34.10
2017-09-30T08:02:25.402Z,36.20
2017-09-30T08:04:59.906Z,35.90
2017-09-30T08:07:34.442Z,35.80
2017-09-30T08:10:15.001Z,35.60
2017-09-30T08:12:49.592Z,32.40
2017-09-30T08:15:24.126Z,33.90
2017-09-30T08:17:59.485Z,33.20
2017-09-30T08:20:33.918Z,33.10
2017-09-30T08:23:08.782Z,35.40
2017-09-30T08:25:43.400Z,38.40
2017-09-30T08:28:18.033Z,38.90
2017-09-30T08:30:52.577Z,37.80
2017-09-30T08:33:27.120Z,38.50
2017-09-30T08:36:01.524Z,39.00
2017-09-30T08:38:35.964Z,40.80
2017-09-30T08:41:10.497Z,41.70
2017-09-30T08:43:45.161Z,36.30
2017-09-30T08:46:19.681Z,33.40
2017-09-30T08:48:54.356Z,31.00
2017-09-30T08:51:28.870Z,32.60
2017-09-30T08:54:03.310Z,35.00
2017-09-30T08:56:37.745Z,36.30
2017-09-30T08:59:12.459Z,36.60
2017-09-30T09:01:47.279Z,33.80
2017-09-30T09:04:21.709Z,31.70
2017-09-30T09:06:56.277Z,33.20
2017-09-30T09:09:30.729Z,33.20
2017-09-30T09:12:05.314Z,35.20
2017-09-30T09:14:39.969Z,35.80
2017-09-30T09:17:14.521Z,36.10
2017-09-30T09:19:49.057Z,32.10
2017-09-30T09:22:23.581Z,32.70
2017-09-30T09:24:58.022Z,31.30
2017-09-30T09:27:32.574Z,32.90
2017-09-30T09:30:14.739Z,36.10
2017-09-30T09:32:49.285Z,36.10
2017-09-30T09:35:23.837Z,35.50
2017-09-30T09:37:58.447Z,34.00
2017-09-30T09:40:32.785Z,33.60
2017-09-30T09:43:07.433Z,34.90
2017-09-30T09:45:42.075Z,37.10
2017-09-30T09:48:16.654Z,37.70
2017-09-30T09:50:51.382Z,37.20
2017-09-30T09:53:26.697Z,38.60
2017-09-30T09:56:01.376Z,38.50
2017-09-30T09:58:36.128Z,38.50
2017-09-30T10:01:10.643Z,38.10
2017-09-30T10:03:45.089Z,37.80
2017-09-30T10:06:19.682Z,36.80
2017-09-30T10:08:54.197Z,38.70
2017-09-30T10:11:28.513Z,39.00
2017-09-30T10:14:03.797Z,40.60
2017-09-30T10:16:38.553Z,40.50
2017-09-30T10:19:13.030Z,38.90
2017-09-30T10:21:48.298Z,33.90
2017-09-30T10:24:22.803Z,33.70
2017-09-30T10:26:57.412Z,34.60
2017-09-30T10:29:31.956Z,32.20
2017-09-30T10:32:06.609Z,35.40
2017-09-30T10:34:41.078Z,37.50
2017-09-30T10:37:15.612Z,33.80
2017-09-30T10:39:50.209Z,30.90
2017-09-30T10:42:25.013Z,33.90
2017-09-30T10:44:59.837Z,31.80
2017-09-30T10:47:34.311Z,34.90
2017-09-30T10:50:15.858Z,34.50
2017-09-30T10:52:50.461Z,32.10
2017-09-30T10:55:25.089Z,33.50
2017-09-30T10:57:59.725Z,35.90
2017-09-30T11:00:34.022Z,36.30
2017-09-30T11:03:08.490Z,38.30
2017-09-30T11:05:43.107Z,34.00
2017-09-30T11:08:18.325Z,30.20
2017-09-30T11:10:52.897Z,30.10
2017-09-30T11:13:27.306Z,33.50
2017-09-30T11:16:01.926Z,34.50
2017-09-30T11:18:36.497Z,34.00
2017-09-30T11:21:11.049Z,31.80
2017-09-30T11:23:45.549Z,32.80
2017-09-30T11:26:20.078Z,33.90
2017-09-30T11:28:54.570Z,35.90
2017-09-30T11:31:29.170Z,39.20
2017-09-30T11:34:03.605Z,35.40
2017-09-30T11:36:38.364Z,36.10
2017-09-30T11:39:12.925Z,35.60
2017-09-30T11:41:47.502Z,35.60
2017-09-30T11:44:21.974Z,37.90
2017-09-30T11:46:56.574Z,36.20
2017-09-30T11:49:31.174Z,32.90
2017-09-30T11:52:05.833Z,34.50
2017-09-30T11:54:40.485Z,31.30
2017-09-30T11:57:15.874Z,35.30
2017-09-30T11:59:50.433Z,35.20
2017-09-30T12:02:25.010Z,35.90
2017-09-30T12:04:59.507Z,36.90
2017-09-30T12:07:34.116Z,38.70
2017-09-30T12:10:17.973Z,39.50
2017-09-30T12:12:52.630Z,38.90
2017-09-30T12:15:27.126Z,38.40
2017-09-30T12:18:01.783Z,39.40
2017-09-30T12:20:36.361Z,39.20
2017-09-30T12:23:11.013Z,39.30
2017-09-30T12:25:45.666Z,38.10
2017-09-30T12:28:20.103Z,36.50
2017-09-30T12:30:54.581Z,36.10
2017-09-30T12:33:29.201Z,36.10
2017-09-30T12:36:03.722Z,36.40
2017-09-30T12:38:38.349Z,35.90
2017-09-30T12:41:12.957Z,34.50
2017-09-30T12:43:47.617Z,33.70
2017-09-30T12:46:22.390Z,31.30
2017-09-30T12:48:56.717Z,29.10
2017-09-30T12:51:31.206Z,27.50
2017-09-30T12:54:05.643Z,26.20
2017-09-30T12:56:40.261Z,25.70
2017-09-30T12:59:14.748Z,25.60
2017-09-30T13:01:49.323Z,25.00
2017-09-30T13:04:23.822Z,24.10
2017-09-30T13:06:58.410Z,23.90
2017-09-30T13:09:33.088Z,23.30
2017-09-30T13:12:07.545Z,22.30
2017-09-30T13:14:42.021Z,22.40
2017-09-30T13:17:16.613Z,22.00
2017-09-30T13:19:51.074Z,22.50
2017-09-30T13:22:25.616Z,22.80
2017-09-30T13:25:00.272Z,22.80
2017-09-30T13:27:34.814Z,22.70
2017-09-30T13:30:15.959Z,22.70
2017-09-30T13:32:50.729Z,22.50
2017-09-30T13:35:25.422Z,22.40
2017-09-30T13:37:59.990Z,22.50
2017-09-30T13:40:34.561Z,22.40
2017-09-30T13:43:09.121Z,22.30
2017-09-30T13:45:43.705Z,22.30
2017-09-30T13:48:18.557Z,22.40
2017-09-30T13:50:53.163Z,22.00
2017-09-30T13:53:27.727Z,22.20
2017-09-30T13:56:02.317Z,21.90
2017-09-30T13:58:36.791Z,22.00
2017-09-30T14:01:11.585Z,21.90
2017-09-30T14:03:46.311Z,21.90
2017-09-30T14:06:21.657Z,21.50
2017-09-30T14:08:56.258Z,21.40
2017-09-30T14:11:30.821Z,21.40
2017-09-30T14:14:05.916Z,21.20
2017-09-30T14:16:40.645Z,21.00
2017-09-30T14:19:15.157Z,21.00
2017-09-30T14:21:49.814Z,21.00
2017-09-30T14:24:24.403Z,20.80
2017-09-30T14:26:58.970Z,20.50
2017-09-30T14:29:33.434Z,20.20
2017-09-30T14:32:07.981Z,20.20
2017-09-30T14:34:42.528Z,20.20
2017-09-30T14:37:17.106Z,20.20
2017-09-30T14:39:51.722Z,20.20
2017-09-30T14:42:26.336Z,20.20
2017-09-30T14:45:01.013Z,20.10
2017-09-30T14:47:35.631Z,20.00
2017-09-30T14:50:16.353Z,19.80
2017-09-30T14:52:50.970Z,19.80
2017-09-30T14:55:25.601Z,19.70
2017-09-30T14:58:00.060Z,19.70
2017-09-30T15:00:34.685Z,19.40
2017-09-30T15:03:09.547Z,19.10
2017-09-30T15:05:44.006Z,19.00
2017-09-30T15:08:18.545Z,18.90
2017-09-30T15:10:53.089Z,18.80
2017-09-30T15:13:27.514Z,18.70
2017-09-30T15:16:02.089Z,18.60
2017-09-30T15:18:37.514Z,18.40
2017-09-30T15:21:12.150Z,18.30
2017-09-30T15:23:46.782Z,18.40
2017-09-30T15:26:21.395Z,18.40
2017-09-30T15:28:55.855Z,18.20
2017-09-30T15:31:30.370Z,18.20
2017-09-30T15:34:04.873Z,18.10
2017-09-30T15:36:39.475Z,17.90
2017-09-30T15:39:14.097Z,17.90
2017-09-30T15:41:48.704Z,17.90
2017-09-30T15:44:23.263Z,17.80
2017-09-30T15:46:58.518Z,17.70
2017-09-30T15:49:33.089Z,17.70
2017-09-30T15:52:07.626Z,17.70
2017-09-30T15:54:42.193Z,17.60
2017-09-30T15:57:17.863Z,17.50
2017-09-30T15:59:52.486Z,17.40
2017-09-30T16:02:26.981Z,17.30
2017-09-30T16:05:01.585Z,17.30
2017-09-30T16:07:36.181Z,17.20
2017-09-30T16:10:15.110Z,17.20
2017-09-30T16:12:49.666Z,17.10
2017-09-30T16:15:24.275Z,17.10
2017-09-30T16:17:58.893Z,17.10
2017-09-30T16:20:33.418Z,17.10
2017-09-30T16:23:08.009Z,17.00
2017-09-30T16:25:42.582Z,16.90
2017-09-30T16:28:17.054Z,16.80
2017-09-30T16:30:51.609Z,16.70
2017-09-30T16:33:26.174Z,16.70
2017-09-30T16:36:00.730Z,16.70
2017-09-30T16:38:35.376Z,16.50
2017-09-30T16:41:09.877Z,16.40
2017-09-30T16:43:44.438Z,16.40
2017-09-30T16:46:19.196Z,16.30
2017-09-30T16:48:54.669Z,16.20
2017-09-30T16:51:29.213Z,16.10
2017-09-30T16:54:03.882Z,16.00
2017-09-30T16:56:38.501Z,15.90
2017-09-30T16:59:13.157Z,15.80
2017-09-30T17:01:47.722Z,15.80
2017-09-30T17:04:22.237Z,15.70
2017-09-30T17:06:56.833Z,15.70
2017-09-30T17:09:31.438Z,15.60
2017-09-30T17:12:06.113Z,15.50
2017-09-30T17:14:40.541Z,15.50
2017-09-30T17:17:15.306Z,15.40
2017-09-30T17:19:49.762Z,15.40
2017-09-30T17:22:24.423Z,15.30
2017-09-30T17:24:58.937Z,15.20
2017-09-30T17:27:33.593Z,15.20
2017-09-30T17:30:16.532Z,15.10
2017-09-30T17:32:51.805Z,15.00
2017-09-30T17:35:26.241Z,14.90
2017-09-30T17:38:00.805Z,14.90
2017-09-30T17:40:35.314Z,14.80
2017-09-30T17:43:09.844Z,14.80
2017-09-30T17:45:44.338Z,14.80
2017-09-30T17:48:19.025Z,14.80
2017-09-30T17:50:53.630Z,14.70
2017-09-30T17:53:28.313Z,14.70
2017-09-30T17:56:02.825Z,14.60
2017-09-30T17:58:37.451Z,14.60
2017-09-30T18:01:12.121Z,14.60
2017-09-30T18:03:46.714Z,14.50
2017-09-30T18:06:21.308Z,14.40
2017-09-30T18:08:56.107Z,14.40
2017-09-30T18:11:32.445Z,14.30
2017-09-30T18:14:06.910Z,14.30
2017-09-30T18:16:41.572Z,14.30
2017-09-30T18:19:16.226Z,14.30
2017-09-30T18:21:51.070Z,14.30
2017-09-30T18:24:25.678Z,14.30
2017-09-30T18:27:00.282Z,14.30
2017-09-30T18:29:34.731Z,14.00
2017-09-30T18:32:09.241Z,14.10
2017-09-30T18:34:43.969Z,14.10
2017-09-30T18:37:19.265Z,14.10
2017-09-30T18:39:53.863Z,14.10
2017-09-30T18:42:28.398Z,14.00
2017-09-30T18:47:47.424Z,13.90
2017-09-30T18:50:22.030Z,13.90
2017-09-30T18:52:56.589Z,13.90
2017-09-30T18:55:31.161Z,13.80
2017-09-30T18:58:05.598Z,13.70
2017-09-30T19:00:40.170Z,13.70
2017-09-30T19:03:14.741Z,13.70
2017-09-30T19:05:49.317Z,13.50
2017-09-30T19:08:24.734Z,13.50
2017-09-30T19:10:59.305Z,13.40
2017-09-30T19:13:33.974Z,13.50
2017-09-30T19:16:08.493Z,13.50
2017-09-30T19:18:42.953Z,13.50
2017-09-30T19:21:17.490Z,13.50
2017-09-30T19:23:52.161Z,13.50
2017-09-30T19:26:26.733Z,13.50
2017-09-30T19:29:01.241Z,13.40
2017-09-30T19:31:36.025Z,13.40
2017-09-30T19:34:11.301Z,13.50
2017-09-30T19:36:45.788Z,13.40
2017-09-30T19:39:20.383Z,13.50
2017-09-30T19:41:54.948Z,13.40
2017-09-30T19:44:29.270Z,13.40
2017-09-30T19:47:03.831Z,13.40
2017-09-30T19:49:38.417Z,13.40
2017-09-30T19:52:13.073Z,13.40
2017-09-30T19:54:47.682Z,13.40
2017-09-30T19:57:22.180Z,13.30
2017-09-30T19:59:57.478Z,13.30
2017-09-30T20:02:32.898Z,13.30
2017-09-30T20:05:16.777Z,13.20
2017-09-30T20:07:52.079Z,13.30
2017-09-30T20:10:26.733Z,13.20
2017-09-30T20:13:01.218Z,13.20
2017-09-30T20:15:35.762Z,13.20
2017-09-30T20:18:10.362Z,13.20
2017-09-30T20:20:44.919Z,13.20
2017-09-30T20:23:19.390Z,13.10
2017-09-30T20:25:53.889Z,13.10
2017-09-30T20:28:28.460Z,13.10
2017-09-30T20:31:03.081Z,13.10
2017-09-30T20:33:37.659Z,13.10
2017-09-30T20:36:13.081Z,13.10
2017-09-30T20:38:47.508Z,13.00
2017-09-30T20:41:22.142Z,13.00
2017-09-30T20:43:56.765Z,13.00
2017-09-30T20:46:31.394Z,13.00
2017-09-30T20:49:05.902Z,13.00
2017-09-30T20:51:40.571Z,12.90
2017-09-30T20:54:15.142Z,13.00
2017-09-30T20:56:49.698Z,12.90
2017-09-30T20:59:24.291Z,12.90
2017-09-30T21:01:59.728Z,12.90
2017-09-30T21:04:34.287Z,12.90
2017-09-30T21:07:09.040Z,12.90
2017-09-30T21:09:43.722Z,13.00
2017-09-30T21:12:18.244Z,13.00
2017-09-30T21:14:52.726Z,13.00
2017-09-30T21:17:27.286Z,13.10
2017-09-30T21:20:01.846Z,13.10
2017-09-30T21:22:36.496Z,13.10
2017-09-30T21:25:17.483Z,13.20
2017-09-30T21:27:51.944Z,13.20
2017-09-30T21:30:26.494Z,13.20
2017-09-30T21:33:01.119Z,13.20
2017-09-30T21:35:35.719Z,13.30
2017-09-30T21:38:10.354Z,13.20
2017-09-30T21:40:44.984Z,13.20
2017-09-30T21:43:19.611Z,13.10
2017-09-30T21:45:54.262Z,13.10
2017-09-30T21:48:28.977Z,13.20
2017-09-30T21:51:03.468Z,13.10
2017-09-30T21:53:37.918Z,13.10
2017-09-30T21:56:12.574Z,13.10
2017-09-30T21:58:47.068Z,13.00
2017-09-30T22:01:21.298Z,13.00
2017-09-30T22:03:56.054Z,13.00
2017-09-30T22:06:30.638Z,12.90
2017-09-30T22:09:04.461Z,12.80
2017-09-30T22:11:39.093Z,12.80
2017-09-30T22:14:13.814Z,12.60
2017-09-30T22:16:48.389Z,12.50
2017-09-30T22:19:22.969Z,12.40
2017-09-30T22:21:57.563Z,12.30
2017-09-30T22:24:32.931Z,12.00
2017-09-30T22:27:07.610Z,12.00
2017-09-30T22:29:42.281Z,11.90
2017-09-30T22:32:16.871Z,11.80
2017-09-30T22:34:52.235Z,11.70
2017-09-30T22:37:27.674Z,11.70
2017-09-30T22:42:47.409Z,11.70
2017-09-30T22:45:21.903Z,11.50
2017-09-30T22:47:57.114Z,11.40
2017-09-30T22:50:31.612Z,11.30
2017-09-30T22:53:06.519Z,11.30
2017-09-30T22:55:41.112Z,11.20
2017-09-30T22:58:16.001Z,11.20
2017-09-30T23:00:50.621Z,11.20
2017-09-30T23:03:25.096Z,11.10
2017-09-30T23:05:59.595Z,11.00
2017-09-30T23:08:34.134Z,11.00
2017-09-30T23:11:08.724Z,10.90
2017-09-30T23:13:43.318Z,10.90
2017-09-30T23:16:17.898Z,10.90
2017-09-30T23:18:52.455Z,10.80
2017-09-30T23:21:26.994Z,10.90
2017-09-30T23:24:01.635Z,10.80
2017-09-30T23:26:36.154Z,10.70
2017-09-30T23:29:10.651Z,10.70
2017-09-30T23:31:47.594Z,10.70
2017-09-30T23:34:22.638Z,10.80
2017-09-30T23:36:58.001Z,10.80
2017-09-30T23:39:32.643Z,10.70
2017-09-30T23:42:07.114Z,10.80
2017-09-30T23:44:41.799Z,10.80
2017-09-30T23:47:16.403Z,10.80
2017-09-30T23:49:51.822Z,10.70
2017-09-30T23:52:26.406Z,10.70
2017-09-30T23:55:01.213Z,10.70
2017-09-30T23:57:35.650Z,10.70
